New Castle Airport
KILG : now visible

Airfield :











YOU CAN JOIN US ON...

 
LOGIN :

Register | Disclaimer

   EN    FR    IT 

 









Legend :    VFR   Marginal VFR   IFR   Intensive IFR   Very Intensive IFR
Visi :
Ceiling :
>= 8 km
>= 3000ft
5 to 8 km
1000 to 3000 ft
1500m to 5 km
500 to 1000 ft
800 to 1500m
200 to 500 ft
< 800m
< 200 ft
Symbols :   Thunderstorms  Fog  Heavy snow  Heavy precipitations  Wind > 20 kt






- Airport Elevation : 80 ft
- IATA code : ILG


KILG - New Castle

CURRENT METAR :
  • 300851Z AUTO 03010KT 10SM CLR 12/07 A3029 RMK AO2 SLP256 T01220067 55008

EXPIRED METARs :
  • 300751Z AUTO 03010KT 10SM CLR 13/07 A3029 RMK AO2 SLP255 T01280067
  • 300651Z AUTO 01007KT 10SM CLR 12/07 A3030 RMK AO2 SLP259 T01170072

TAF KILG
Valid from the 30 at 06:00 until the 01 at 06:00 UTC


300520Z 3006/0106 02008KT P6SM OVC250
FM301400 05011G20KT P6SM SCT040 OVC150
FM010400 05012G20KT P6SM VCSH OVC025
KZDC FIR / North America



MET'MAP, your aeronautical weather chart ! - Copyright ORBIFLY December 2007 - Disclaimer

ORBIFLY MET'MAP TEAM :

Programming & Development : Alexandra Zaïnal
Original concept : Baudouin d'Aumeries
Technical & hardware support : Manuel Goepfert
Assistance : Marc-Olivier Méhu




SOURCES & CREDITS :

   NOAA       Earth
Advisory